createdAt,value
2019-01-27T00:01:51.255Z,22.40
2019-01-27T00:04:59.868Z,21.57
2019-01-27T00:08:13.412Z,21.20
2019-01-27T00:11:18.751Z,21.33
2019-01-27T00:14:27.316Z,20.17
2019-01-27T00:17:35.875Z,21.10
2019-01-27T00:20:44.472Z,19.90
2019-01-27T00:24:03.421Z,19.63
2019-01-27T00:27:22.852Z,18.70
2019-01-27T00:30:42.253Z,19.87
2019-01-27T00:33:50.924Z,16.50
2019-01-27T00:37:10.528Z,17.77
2019-01-27T00:40:19.784Z,15.83
2019-01-27T00:43:38.612Z,14.90
2019-01-27T00:46:47.365Z,14.90
2019-01-27T00:49:55.932Z,14.03
2019-01-27T00:53:04.524Z,13.73
2019-01-27T00:56:13.017Z,12.33
2019-01-27T00:59:21.608Z,11.27
2019-01-27T01:02:30.228Z,10.27
2019-01-27T01:05:49.235Z,9.47
2019-01-27T01:08:57.935Z,9.33
2019-01-27T01:12:06.688Z,10.00
2019-01-27T01:15:15.641Z,9.73
2019-01-27T01:18:24.315Z,8.93
2019-01-27T01:21:32.897Z,9.60
2019-01-27T01:24:41.483Z,9.47
2019-01-27T01:27:51.144Z,10.73
2019-01-27T01:30:59.665Z,9.73
2019-01-27T01:34:08.463Z,10.00
2019-01-27T01:37:17.060Z,10.83
2019-01-27T01:40:25.844Z,11.33
2019-01-27T01:43:34.463Z,11.80
2019-01-27T01:46:43.161Z,11.83
2019-01-27T01:49:51.632Z,11.90
2019-01-27T01:53:00.233Z,12.10
2019-01-27T01:56:19.918Z,13.13
2019-01-27T01:59:28.624Z,12.23
2019-01-27T02:02:37.112Z,11.57
2019-01-27T02:05:45.683Z,11.23
2019-01-27T02:08:54.424Z,12.13
2019-01-27T02:12:02.934Z,11.30
2019-01-27T02:15:57.321Z,11.13
2019-01-27T02:19:06.196Z,11.17
2019-01-27T02:22:14.796Z,10.47
2019-01-27T02:25:23.398Z,9.53
2019-01-27T02:28:32.067Z,10.40
2019-01-27T02:31:40.558Z,10.03
2019-01-27T02:34:49.166Z,9.90
2019-01-27T02:38:08.617Z,8.77
2019-01-27T02:41:17.117Z,8.63
2019-01-27T02:44:25.804Z,8.53
2019-01-27T02:47:34.454Z,9.13
2019-01-27T02:50:43.044Z,8.77
2019-01-27T02:53:51.657Z,9.40
2019-01-27T02:57:00.339Z,7.80
2019-01-27T03:00:09.991Z,7.83
2019-01-27T03:03:18.630Z,7.13
2019-01-27T03:06:44.990Z,6.67
2019-01-27T03:09:53.801Z,6.93
2019-01-27T03:13:02.391Z,6.50
2019-01-27T03:16:12.061Z,6.60
2019-01-27T03:19:21.090Z,6.00
2019-01-27T03:22:29.769Z,5.67
2019-01-27T03:25:48.550Z,5.67
2019-01-27T03:28:57.201Z,5.20
2019-01-27T03:32:06.117Z,5.07
2019-01-27T03:35:14.786Z,5.60
2019-01-27T03:38:23.520Z,5.43
2019-01-27T03:41:32.150Z,5.33
2019-01-27T03:44:40.734Z,5.43
2019-01-27T03:47:49.443Z,5.00
2019-01-27T03:50:58.005Z,4.80
2019-01-27T03:54:08.025Z,4.50
2019-01-27T03:57:16.757Z,5.10
2019-01-27T04:00:25.712Z,4.57
2019-01-27T04:03:34.230Z,4.67
2019-01-27T04:06:42.708Z,4.80
2019-01-27T04:09:51.305Z,4.63
2019-01-27T04:12:59.886Z,4.80
2019-01-27T04:16:08.358Z,4.47
2019-01-27T04:19:27.169Z,4.47
2019-01-27T04:22:35.746Z,4.90
2019-01-27T04:25:44.386Z,4.37
2019-01-27T04:28:52.914Z,5.30
2019-01-27T04:32:01.378Z,5.13
2019-01-27T04:35:11.917Z,5.37
2019-01-27T04:38:20.546Z,5.70
2019-01-27T04:41:39.247Z,5.90
2019-01-27T04:44:47.921Z,6.00
2019-01-27T04:47:56.500Z,6.33
2019-01-27T04:51:05.192Z,6.10
2019-01-27T04:54:13.794Z,5.77
2019-01-27T04:57:22.282Z,6.00
2019-01-27T05:00:41.040Z,5.67
2019-01-27T05:04:00.517Z,5.67
2019-01-27T05:07:09.097Z,5.47
2019-01-27T05:10:17.690Z,5.40
2019-01-27T05:13:36.389Z,5.60
2019-01-27T05:16:45.126Z,5.03
2019-01-27T05:19:53.705Z,5.33
2019-01-27T05:23:02.199Z,5.57
2019-01-27T05:26:10.782Z,4.90
2019-01-27T05:29:19.425Z,5.50
2019-01-27T05:32:27.988Z,5.10
2019-01-27T05:35:36.541Z,5.70
2019-01-27T05:38:45.175Z,5.40
2019-01-27T05:41:53.832Z,6.10
2019-01-27T05:45:02.437Z,5.37
2019-01-27T05:48:11.110Z,5.77
2019-01-27T05:51:19.587Z,5.53
2019-01-27T05:54:28.146Z,5.70
2019-01-27T05:57:47.050Z,5.50
2019-01-27T06:00:55.643Z,5.67
2019-01-27T06:04:04.237Z,5.50
2019-01-27T06:07:12.893Z,5.53
2019-01-27T06:10:21.371Z,5.40
2019-01-27T06:13:29.931Z,5.80
2019-01-27T06:16:48.784Z,5.93
2019-01-27T06:19:57.242Z,5.53
2019-01-27T06:23:05.813Z,5.70
2019-01-27T06:26:14.400Z,6.10
2019-01-27T06:29:23.048Z,5.30
2019-01-27T06:32:43.222Z,5.30
2019-01-27T06:35:51.703Z,5.07
2019-01-27T06:39:10.933Z,4.83
2019-01-27T06:42:29.763Z,5.07
2019-01-27T06:45:38.397Z,5.30
2019-01-27T06:48:46.996Z,5.00
2019-01-27T06:51:55.572Z,4.27
2019-01-27T06:55:04.676Z,4.17
2019-01-27T06:58:14.830Z,4.57
2019-01-27T07:01:31.086Z,4.50
2019-01-27T07:05:18.902Z,4.30
2019-01-27T07:08:38.917Z,4.40
2019-01-27T07:12:03.789Z,4.20
2019-01-27T07:15:33.698Z,4.77
2019-01-27T07:18:51.553Z,4.67
2019-01-27T07:22:17.725Z,4.43
2019-01-27T07:25:56.122Z,4.15
2019-01-27T07:29:22.609Z,4.50
2019-01-27T07:32:44.925Z,4.37
2019-01-27T07:36:08.749Z,4.53
2019-01-27T07:39:42.428Z,4.70
2019-01-27T07:43:09.889Z,4.13
2019-01-27T07:46:43.744Z,4.27
2019-01-27T07:50:30.535Z,5.00
2019-01-27T07:53:49.074Z,4.30
2019-01-27T07:57:22.350Z,3.90
2019-01-27T08:00:52.709Z,4.10
2019-01-27T08:04:13.922Z,4.27
2019-01-27T08:07:44.175Z,4.07
2019-01-27T08:11:10.464Z,4.03
2019-01-27T08:14:37.911Z,4.17
2019-01-27T08:17:59.645Z,3.43
2019-01-27T08:21:49.935Z,3.97
2019-01-27T08:25:13.258Z,3.90
2019-01-27T08:28:39.393Z,4.07
2019-01-27T08:32:18.966Z,3.50
2019-01-27T08:35:38.442Z,3.90
2019-01-27T08:39:04.997Z,3.47
2019-01-27T08:42:41.670Z,3.10
2019-01-27T08:45:54.918Z,3.43
2019-01-27T08:49:03.476Z,3.50
2019-01-27T08:52:12.161Z,3.43
2019-01-27T08:55:20.751Z,3.70
2019-01-27T08:58:39.606Z,3.80
2019-01-27T09:02:19.053Z,3.93
2019-01-27T09:05:51.095Z,3.60
2019-01-27T09:09:14.197Z,3.80
2019-01-27T09:12:50.556Z,3.43
2019-01-27T09:16:06.709Z,3.63
2019-01-27T09:19:33.051Z,3.17
2019-01-27T09:22:49.893Z,4.13
2019-01-27T09:26:21.422Z,3.83
2019-01-27T09:29:46.998Z,3.00
2019-01-27T09:33:14.378Z,3.43
2019-01-27T09:36:47.664Z,3.30
2019-01-27T09:40:13.277Z,3.80
2019-01-27T09:43:33.961Z,3.33
2019-01-27T09:47:10.884Z,3.93
2019-01-27T09:50:41.284Z,3.37
2019-01-27T09:54:07.642Z,3.10
2019-01-27T09:57:30.808Z,3.33
2019-01-27T10:00:50.090Z,3.20
2019-01-27T10:04:20.282Z,2.90
2019-01-27T10:07:50.571Z,2.67
2019-01-27T10:11:55.868Z,2.23
2019-01-27T10:15:22.757Z,2.40
2019-01-27T10:18:56.291Z,3.10
2019-01-27T10:22:14.782Z,2.50
2019-01-27T10:25:44.704Z,2.43
2019-01-27T10:29:29.176Z,2.37
2019-01-27T10:32:47.974Z,1.87
2019-01-27T10:36:32.115Z,1.77
2019-01-27T10:39:46.162Z,1.87
2019-01-27T10:43:18.321Z,1.80
2019-01-27T10:47:16.468Z,1.67
2019-01-27T10:50:43.838Z,1.60
2019-01-27T10:54:01.281Z,1.40
2019-01-27T10:57:17.704Z,1.60
2019-01-27T11:00:43.291Z,1.97
2019-01-27T11:04:25.762Z,1.57
2019-01-27T11:07:41.551Z,1.73
2019-01-27T11:11:07.363Z,1.87
2019-01-27T11:14:43.497Z,1.60
2019-01-27T11:18:33.453Z,1.63
2019-01-27T11:22:03.902Z,1.67
2019-01-27T11:25:30.004Z,1.63
2019-01-27T11:29:03.372Z,1.70
2019-01-27T11:32:25.763Z,1.70
2019-01-27T11:35:39.913Z,1.70
2019-01-27T11:39:08.102Z,1.60
2019-01-27T11:42:35.641Z,1.77
2019-01-27T11:45:53.035Z,1.60
2019-01-27T11:49:07.753Z,1.70
2019-01-27T11:52:26.802Z,1.40
2019-01-27T11:55:45.958Z,1.80
2019-01-27T11:58:54.493Z,1.63
2019-01-27T12:02:03.215Z,1.73
2019-01-27T12:05:12.073Z,1.40
2019-01-27T12:08:20.644Z,1.73
2019-01-27T12:11:29.137Z,1.43
2019-01-27T12:14:37.721Z,1.53
2019-01-27T12:17:46.221Z,1.70
2019-01-27T12:21:05.103Z,1.50
2019-01-27T12:24:13.599Z,1.80
2019-01-27T12:27:22.200Z,1.60
2019-01-27T12:30:30.781Z,1.60
2019-01-27T12:33:39.340Z,1.90
2019-01-27T12:36:58.198Z,1.80
2019-01-27T12:40:10.321Z,2.00
2019-01-27T12:43:18.777Z,1.90
2019-01-27T12:46:27.281Z,1.73
2019-01-27T12:49:35.831Z,1.80
2019-01-27T12:52:44.681Z,1.93
2019-01-27T12:55:53.342Z,2.20
2019-01-27T12:59:01.965Z,1.80
2019-01-27T13:02:10.549Z,2.00
2019-01-27T13:05:29.529Z,1.87
2019-01-27T13:08:38.181Z,1.70
2019-01-27T13:11:46.757Z,2.00
2019-01-27T13:14:55.344Z,1.70
2019-01-27T13:18:02.588Z,1.93
2019-01-27T13:21:11.171Z,1.77
2019-01-27T13:24:19.905Z,1.53
2019-01-27T13:27:28.586Z,2.13
2019-01-27T13:30:37.149Z,2.13
2019-01-27T13:33:55.986Z,2.10
2019-01-27T13:37:04.617Z,1.97
2019-01-27T13:40:20.171Z,2.20
2019-01-27T13:43:28.757Z,1.90
2019-01-27T13:46:37.447Z,1.80
2019-01-27T13:49:46.083Z,1.93
2019-01-27T13:52:55.037Z,2.20
2019-01-27T13:56:03.556Z,1.90
2019-01-27T13:59:12.123Z,1.80
2019-01-27T14:02:20.733Z,1.70
2019-01-27T14:05:29.460Z,1.53
2019-01-27T14:08:49.388Z,1.60
2019-01-27T14:11:59.675Z,1.70
2019-01-27T14:15:12.783Z,1.90
2019-01-27T14:18:21.711Z,1.43
2019-01-27T14:21:40.321Z,1.40
2019-01-27T14:24:48.888Z,1.40
2019-01-27T14:27:57.391Z,1.23
2019-01-27T14:31:05.842Z,1.50
2019-01-27T14:34:24.588Z,1.30
2019-01-27T14:37:33.294Z,1.50
2019-01-27T14:40:41.948Z,1.43
2019-01-27T14:43:50.423Z,1.43
2019-01-27T14:46:59.066Z,1.80
2019-01-27T14:50:16.239Z,1.33
2019-01-27T14:53:26.293Z,1.57
2019-01-27T14:56:34.846Z,1.53
2019-01-27T14:59:43.417Z,1.77
2019-01-27T15:03:02.287Z,1.80
2019-01-27T15:06:10.841Z,2.20
2019-01-27T15:09:19.496Z,1.97
2019-01-27T15:12:28.076Z,2.20
2019-01-27T15:15:36.721Z,2.00
2019-01-27T15:18:45.618Z,2.60
2019-01-27T15:21:54.166Z,2.40
2019-01-27T15:25:03.509Z,2.53
2019-01-27T15:28:12.030Z,2.20
2019-01-27T15:31:20.613Z,2.10
2019-01-27T15:34:29.649Z,2.70
2019-01-27T15:37:38.198Z,2.40
2019-01-27T15:40:56.816Z,2.97
2019-01-27T15:44:05.317Z,2.57
2019-01-27T15:47:14.084Z,2.57
2019-01-27T15:50:25.028Z,2.80
2019-01-27T15:53:33.538Z,2.50
2019-01-27T15:56:41.988Z,2.70
2019-01-27T15:59:50.449Z,3.17
2019-01-27T16:02:58.896Z,3.00
2019-01-27T16:06:17.839Z,3.07
2019-01-27T16:09:26.519Z,3.10
2019-01-27T16:12:34.945Z,3.00
2019-01-27T16:15:43.420Z,3.27
2019-01-27T16:18:58.680Z,3.37
2019-01-27T16:22:12.279Z,3.20
2019-01-27T16:25:20.772Z,3.17
2019-01-27T16:28:29.321Z,3.37
2019-01-27T16:31:48.380Z,2.93
2019-01-27T16:35:00.571Z,3.27
2019-01-27T16:38:09.155Z,3.23
2019-01-27T16:41:17.626Z,3.07
2019-01-27T16:44:26.090Z,2.80
2019-01-27T16:47:34.604Z,3.40
2019-01-27T16:50:53.262Z,3.40
2019-01-27T16:54:01.833Z,3.10
2019-01-27T16:57:10.341Z,3.17
2019-01-27T17:00:22.854Z,3.47
2019-01-27T17:03:31.419Z,3.60
2019-01-27T17:06:40.001Z,3.33
2019-01-27T17:09:48.446Z,3.20
2019-01-27T17:12:56.917Z,3.33
2019-01-27T17:16:15.799Z,3.57
2019-01-27T17:19:24.383Z,3.87
2019-01-27T17:22:32.849Z,3.83
2019-01-27T17:25:41.326Z,3.90
2019-01-27T17:28:50.060Z,4.30
2019-01-27T17:31:58.616Z,4.07
2019-01-27T17:35:08.855Z,4.43
2019-01-27T17:38:17.554Z,4.47
2019-01-27T17:41:26.113Z,4.70
2019-01-27T17:44:34.577Z,5.23
2019-01-27T17:47:43.150Z,5.70
2019-01-27T17:50:51.713Z,5.70
2019-01-27T17:54:02.665Z,5.63
2019-01-27T17:57:33.146Z,5.93
2019-01-27T18:01:15.444Z,6.13
2019-01-27T18:04:42.877Z,6.20
2019-01-27T18:08:18.292Z,6.27
2019-01-27T18:11:34.715Z,6.20
2019-01-27T18:15:02.361Z,6.50
2019-01-27T18:18:11.024Z,6.83
2019-01-27T18:21:19.672Z,6.63
2019-01-27T18:24:28.111Z,7.27
2019-01-27T18:27:36.756Z,7.17
2019-01-27T18:30:45.290Z,7.17
2019-01-27T18:34:04.146Z,8.30
2019-01-27T18:37:12.792Z,8.37
2019-01-27T18:40:21.227Z,8.07
2019-01-27T18:43:29.710Z,7.93
2019-01-27T18:46:48.650Z,8.40
2019-01-27T18:49:57.109Z,9.03
2019-01-27T18:53:17.037Z,8.70
2019-01-27T18:56:30.568Z,9.40
2019-01-27T18:59:56.357Z,10.33
2019-01-27T19:03:15.757Z,9.67
2019-01-27T19:06:44.586Z,9.33
2019-01-27T19:10:09.448Z,9.70
2019-01-27T19:13:45.612Z,8.23
2019-01-27T19:17:12.995Z,9.83
2019-01-27T19:20:48.990Z,10.33
2019-01-27T19:24:08.144Z,11.03
2019-01-27T19:27:49.686Z,10.30
2019-01-27T19:31:17.156Z,11.20
2019-01-27T19:34:50.618Z,10.90
2019-01-27T19:38:06.390Z,10.67
2019-01-27T19:41:19.898Z,11.43
2019-01-27T19:44:51.441Z,12.47
2019-01-27T19:48:21.820Z,12.37
2019-01-27T19:51:55.373Z,13.43
2019-01-27T19:55:21.119Z,11.73
2019-01-27T19:58:50.108Z,12.30
2019-01-27T20:02:50.365Z,12.83
2019-01-27T20:06:38.638Z,11.37
2019-01-27T20:10:06.019Z,11.43
2019-01-27T20:13:39.507Z,10.10
2019-01-27T20:17:06.478Z,9.10
2019-01-27T20:20:50.101Z,8.93
2019-01-27T20:24:29.433Z,8.33
2019-01-27T20:27:59.310Z,7.67
2019-01-27T20:31:33.639Z,6.77
2019-01-27T20:35:00.989Z,6.60
2019-01-27T20:38:37.117Z,6.63
2019-01-27T20:42:04.469Z,5.60
2019-01-27T20:45:35.609Z,5.50
2019-01-27T20:48:52.965Z,5.80
2019-01-27T20:52:23.512Z,5.93
2019-01-27T20:56:08.775Z,5.67
2019-01-27T20:59:33.413Z,4.90
2019-01-27T21:03:19.119Z,5.53
2019-01-27T21:06:38.084Z,5.30
2019-01-27T21:10:12.427Z,5.37
2019-01-27T21:13:45.028Z,4.60
2019-01-27T21:17:12.554Z,4.30
2019-01-27T21:20:22.636Z,3.60
2019-01-27T21:23:31.128Z,4.63
2019-01-27T21:26:39.787Z,4.03
2019-01-27T21:29:48.257Z,3.77
2019-01-27T21:32:56.795Z,3.33
2019-01-27T21:36:15.584Z,4.03
2019-01-27T21:39:24.208Z,3.30
2019-01-27T21:42:32.677Z,3.57
2019-01-27T21:45:41.151Z,3.73
2019-01-27T21:48:49.766Z,2.77
2019-01-27T21:52:08.520Z,2.90
2019-01-27T21:55:17.248Z,3.20
2019-01-27T21:58:25.802Z,3.17
2019-01-27T22:01:34.331Z,3.30
2019-01-27T22:04:42.940Z,2.87
2019-01-27T22:07:51.451Z,3.33
2019-01-27T22:11:10.257Z,3.23
2019-01-27T22:14:18.750Z,2.80
2019-01-27T22:17:27.450Z,3.17
2019-01-27T22:20:36.087Z,2.73
2019-01-27T22:23:44.562Z,2.80
2019-01-27T22:27:03.271Z,3.53
2019-01-27T22:30:18.748Z,3.33
2019-01-27T22:33:27.222Z,3.00
2019-01-27T22:36:35.681Z,3.57
2019-01-27T22:39:44.690Z,2.90
2019-01-27T22:42:53.204Z,3.23
2019-01-27T22:46:01.675Z,2.90
2019-01-27T22:49:10.194Z,2.47
2019-01-27T22:52:29.290Z,2.80
2019-01-27T22:55:37.765Z,2.80
2019-01-27T22:58:46.312Z,2.80
2019-01-27T23:01:54.964Z,3.27
2019-01-27T23:05:03.716Z,3.40
2019-01-27T23:08:12.350Z,3.83
2019-01-27T23:11:20.897Z,3.50
2019-01-27T23:14:29.478Z,3.33
2019-01-27T23:17:48.402Z,3.63
2019-01-27T23:20:56.915Z,4.03
2019-01-27T23:24:05.480Z,3.23
2019-01-27T23:27:14.058Z,3.80
2019-01-27T23:30:22.640Z,3.13
2019-01-27T23:33:41.308Z,3.50
2019-01-27T23:36:49.931Z,3.63
2019-01-27T23:39:58.519Z,4.07
2019-01-27T23:43:07.007Z,3.57
2019-01-27T23:46:15.486Z,3.30
2019-01-27T23:49:40.278Z,3.47
2019-01-27T23:52:49.153Z,3.30
2019-01-27T23:55:57.666Z,3.20
2019-01-27T23:59:06.698Z,3.50
